WGN618 KRNO-KSLC
Flight info
| Callsign | WGN618 |
|---|---|
| Flight time | 1h 11m |
| Altitude | 37000 |
| Route | ZEFFR9 BLKJK LLC SLOWN FLECC YUTES2 |
| Aircraft | MD1F/H-SDE1E2E3FGHIJ2J3J4J5M1RWXY/LB1D1 |
Departure
| Time | 2026-05-04 00:07 |
|---|---|
| Airport | Reno Tahoe International Airport (KRNO) |
Arrival
| Time | 2026-05-04 01:19 |
|---|---|
| Airport | Salt Lake City International Airport (KSLC) |
| Time | Latitude | Longitude | Altitude | Speed | Heading |
|---|---|---|---|---|---|
| 2026-05-04 00:04 | 39.51373 | -119.76822 | 4426 ft | 0 kts | 90° |
| 2026-05-04 00:05 | 39.51373 | -119.76820 | 4425 ft | 1 kts | 90° |
| 2026-05-04 00:05 | 39.51373 | -119.76794 | 4425 ft | 5 kts | 90° |
| 2026-05-04 00:05 | 39.51372 | -119.76732 | 4425 ft | 8 kts | 100° |
| 2026-05-04 00:05 | 39.51316 | -119.76678 | 4424 ft | 13 kts | 172° |
| 2026-05-04 00:06 | 39.51266 | -119.76676 | 4423 ft | 0 kts | 179° |
| 2026-05-04 00:06 | 39.51065 | -119.76675 | 4422 ft | 66 kts | 180° |
| 2026-05-04 00:07 | 39.50368 | -119.76678 | 4416 ft | 133 kts | 181° |
| 2026-05-04 00:07 | 39.49243 | -119.76673 | 4464 ft | 179 kts | 181° |
| 2026-05-04 00:07 | 39.48023 | -119.76652 | 5091 ft | 173 kts | 179° |
| 2026-05-04 00:07 | 39.46800 | -119.76595 | 5632 ft | 177 kts | 186° |
| 2026-05-04 00:08 | 39.45600 | -119.76731 | 6265 ft | 176 kts | 185° |
| 2026-05-04 00:08 | 39.44365 | -119.76836 | 6695 ft | 179 kts | 185° |
| 2026-05-04 00:08 | 39.43118 | -119.76943 | 7115 ft | 183 kts | 181° |
| 2026-05-04 00:08 | 39.41820 | -119.76939 | 7528 ft | 188 kts | 179° |
| 2026-05-04 00:09 | 39.40478 | -119.76949 | 7776 ft | 204 kts | 180° |
| 2026-05-04 00:09 | 39.38964 | -119.76942 | 7895 ft | 233 kts | 182° |
| 2026-05-04 00:09 | 39.37275 | -119.76954 | 8189 ft | 256 kts | 180° |
| 2026-05-04 00:09 | 39.35424 | -119.76979 | 8629 ft | 276 kts | 179° |
| 2026-05-04 00:10 | 39.33487 | -119.76987 | 9289 ft | 290 kts | 178° |
| 2026-05-04 00:10 | 39.31527 | -119.76418 | 10044 ft | 294 kts | 147° |
| 2026-05-04 00:10 | 39.30051 | -119.74695 | 10916 ft | 292 kts | 118° |
| 2026-05-04 00:10 | 39.29213 | -119.72345 | 11804 ft | 293 kts | 107° |
| 2026-05-04 00:11 | 39.28571 | -119.69936 | 12713 ft | 294 kts | 112° |
| 2026-05-04 00:11 | 39.28042 | -119.67432 | 13623 ft | 293 kts | 94° |
| 2026-05-04 00:11 | 39.28164 | -119.64821 | 14416 ft | 300 kts | 76° |
| 2026-05-04 00:11 | 39.29022 | -119.62254 | 14652 ft | 328 kts | 59° |
| 2026-05-04 00:12 | 39.30394 | -119.59722 | 14802 ft | 357 kts | 54° |
| 2026-05-04 00:12 | 39.31948 | -119.57084 | 14921 ft | 385 kts | 56° |
| 2026-05-04 00:12 | 39.33567 | -119.54225 | 15064 ft | 410 kts | 57° |
| 2026-05-04 00:12 | 39.35316 | -119.51267 | 15749 ft | 422 kts | 51° |
| 2026-05-04 00:13 | 39.37365 | -119.48525 | 16491 ft | 432 kts | 45° |
| 2026-05-04 00:13 | 39.39556 | -119.45900 | 17291 ft | 439 kts | 45° |
| 2026-05-04 00:13 | 39.41746 | -119.43247 | 18097 ft | 445 kts | 45° |
| 2026-05-04 00:13 | 39.43988 | -119.40542 | 18892 ft | 450 kts | 44° |
| 2026-05-04 00:14 | 39.46299 | -119.37778 | 19720 ft | 455 kts | 44° |
| 2026-05-04 00:14 | 39.48605 | -119.35014 | 20520 ft | 460 kts | 46° |
| 2026-05-04 00:14 | 39.50953 | -119.32184 | 21346 ft | 465 kts | 47° |
| 2026-05-04 00:14 | 39.53288 | -119.29349 | 22142 ft | 469 kts | 46° |
| 2026-05-04 00:15 | 39.55687 | -119.26426 | 22937 ft | 474 kts | 46° |
| 2026-05-04 00:15 | 39.58063 | -119.23534 | 23748 ft | 478 kts | 45° |
| 2026-05-04 00:15 | 39.60496 | -119.20583 | 24510 ft | 483 kts | 45° |
| 2026-05-04 00:15 | 39.62959 | -119.17612 | 25177 ft | 488 kts | 45° |
| 2026-05-04 00:16 | 39.65474 | -119.14566 | 25930 ft | 491 kts | 46° |
| 2026-05-04 00:16 | 39.67956 | -119.11550 | 26779 ft | 492 kts | 46° |
| 2026-05-04 00:16 | 39.70432 | -119.08545 | 27716 ft | 490 kts | 46° |
| 2026-05-04 00:16 | 39.72906 | -119.05545 | 28717 ft | 487 kts | 46° |
| 2026-05-04 00:17 | 39.75360 | -119.02578 | 29690 ft | 483 kts | 46° |
| 2026-05-04 00:17 | 39.77805 | -118.99624 | 30643 ft | 479 kts | 45° |
| 2026-05-04 00:17 | 39.80242 | -118.96674 | 31493 ft | 475 kts | 44° |
| 2026-05-04 00:17 | 39.82669 | -118.93746 | 32293 ft | 471 kts | 45° |
| 2026-05-04 00:18 | 39.85092 | -118.90805 | 33109 ft | 468 kts | 46° |
| 2026-05-04 00:18 | 39.87480 | -118.87934 | 33811 ft | 464 kts | 45° |
| 2026-05-04 00:18 | 39.89848 | -118.85098 | 34517 ft | 461 kts | 46° |
| 2026-05-04 00:18 | 39.92201 | -118.82259 | 34928 ft | 459 kts | 45° |
| 2026-05-04 00:19 | 39.94521 | -118.79439 | 35203 ft | 460 kts | 44° |
| 2026-05-04 00:19 | 39.96893 | -118.76562 | 35466 ft | 462 kts | 44° |
| 2026-05-04 00:19 | 39.99266 | -118.73725 | 35671 ft | 464 kts | 44° |
| 2026-05-04 00:19 | 40.01613 | -118.70889 | 35871 ft | 466 kts | 44° |
| 2026-05-04 00:20 | 40.03999 | -118.67996 | 36024 ft | 470 kts | 45° |
| 2026-05-04 00:20 | 40.06403 | -118.65096 | 36216 ft | 472 kts | 43° |
| 2026-05-04 00:20 | 40.08816 | -118.62186 | 36431 ft | 474 kts | 48° |
| 2026-05-04 00:20 | 40.10932 | -118.58878 | 36667 ft | 471 kts | 58° |
| 2026-05-04 00:21 | 40.12594 | -118.55229 | 36836 ft | 472 kts | 66° |
| 2026-05-04 00:21 | 40.13845 | -118.51279 | 36950 ft | 469 kts | 73° |
| 2026-05-04 00:21 | 40.15561 | -118.43146 | 36920 ft | 467 kts | 74° |
| 2026-05-04 00:22 | 40.17287 | -118.34917 | 36932 ft | 473 kts | 77° |
| 2026-05-04 00:22 | 40.18988 | -118.26568 | 36947 ft | 475 kts | 76° |
| 2026-05-04 00:23 | 40.20678 | -118.18233 | 36981 ft | 475 kts | 76° |
| 2026-05-04 00:23 | 40.22362 | -118.09953 | 36989 ft | 474 kts | 76° |
| 2026-05-04 00:24 | 40.24083 | -118.01599 | 36993 ft | 474 kts | 77° |
| 2026-05-04 00:24 | 40.25801 | -117.93290 | 37001 ft | 474 kts | 75° |
| 2026-05-04 00:25 | 40.27521 | -117.84982 | 37005 ft | 474 kts | 75° |
| 2026-05-04 00:25 | 40.29239 | -117.76709 | 37010 ft | 474 kts | 77° |
| 2026-05-04 00:26 | 40.30969 | -117.68417 | 37017 ft | 474 kts | 75° |
| 2026-05-04 00:26 | 40.32708 | -117.60100 | 37019 ft | 473 kts | 75° |
| 2026-05-04 00:27 | 40.34463 | -117.51794 | 37020 ft | 474 kts | 76° |
| 2026-05-04 00:27 | 40.36205 | -117.43530 | 37028 ft | 474 kts | 75° |
| 2026-05-04 00:28 | 40.37848 | -117.35152 | 37018 ft | 475 kts | 77° |
| 2026-05-04 00:28 | 40.39438 | -117.26778 | 37013 ft | 475 kts | 77° |
| 2026-05-04 00:29 | 40.41059 | -117.18385 | 36999 ft | 474 kts | 78° |
| 2026-05-04 00:29 | 40.42682 | -117.10095 | 37019 ft | 475 kts | 76° |
| 2026-05-04 00:30 | 40.44276 | -117.01953 | 37012 ft | 475 kts | 77° |
| 2026-05-04 00:30 | 40.45768 | -116.94341 | 37012 ft | 475 kts | 78° |
| 2026-05-04 00:31 | 40.47323 | -116.86488 | 37011 ft | 475 kts | 78° |
| 2026-05-04 00:31 | 40.48979 | -116.78113 | 37009 ft | 476 kts | 76° |
| 2026-05-04 00:32 | 40.50655 | -116.69672 | 36987 ft | 476 kts | 77° |
| 2026-05-04 00:32 | 40.52331 | -116.61256 | 37007 ft | 477 kts | 76° |
| 2026-05-04 00:33 | 40.54853 | -116.48644 | 37010 ft | 477 kts | 77° |
| 2026-05-04 00:34 | 40.56421 | -116.40211 | 37028 ft | 476 kts | 81° |
| 2026-05-04 00:34 | 40.57451 | -116.31692 | 37027 ft | 476 kts | 84° |
| 2026-05-04 00:35 | 40.58255 | -116.23046 | 37052 ft | 477 kts | 85° |
| 2026-05-04 00:35 | 40.58971 | -116.14402 | 37047 ft | 477 kts | 85° |
| 2026-05-04 00:36 | 40.59711 | -116.05691 | 37066 ft | 478 kts | 84° |
| 2026-05-04 00:36 | 40.60482 | -115.96995 | 37063 ft | 478 kts | 84° |
| 2026-05-04 00:37 | 40.61256 | -115.88335 | 37076 ft | 479 kts | 85° |
| 2026-05-04 00:37 | 40.62034 | -115.79625 | 37091 ft | 479 kts | 84° |
| 2026-05-04 00:38 | 40.62818 | -115.70933 | 37082 ft | 478 kts | 83° |
| 2026-05-04 00:38 | 40.63612 | -115.62228 | 37069 ft | 478 kts | 85° |
| 2026-05-04 00:39 | 40.64411 | -115.53515 | 37084 ft | 479 kts | 85° |
| 2026-05-04 00:39 | 40.65216 | -115.44831 | 37093 ft | 480 kts | 83° |
| 2026-05-04 00:40 | 40.66027 | -115.36084 | 37107 ft | 480 kts | 83° |
| 2026-05-04 00:40 | 40.66861 | -115.27359 | 37110 ft | 480 kts | 84° |
| 2026-05-04 00:41 | 40.67646 | -115.18645 | 37117 ft | 480 kts | 86° |
| 2026-05-04 00:41 | 40.68349 | -115.09908 | 37131 ft | 480 kts | 85° |
| 2026-05-04 00:42 | 40.69107 | -115.01128 | 37106 ft | 481 kts | 85° |
| 2026-05-04 00:42 | 40.69852 | -114.91833 | 37103 ft | 482 kts | 85° |
| 2026-05-04 00:43 | 40.70361 | -114.83000 | 37092 ft | 482 kts | 88° |
| 2026-05-04 00:43 | 40.70570 | -114.74149 | 37099 ft | 482 kts | 90° |
| 2026-05-04 00:44 | 40.70708 | -114.65350 | 37096 ft | 481 kts | 89° |
| 2026-05-04 00:44 | 40.70845 | -114.56531 | 37087 ft | 481 kts | 89° |
| 2026-05-04 00:45 | 40.71009 | -114.47739 | 37076 ft | 482 kts | 90° |
| 2026-05-04 00:45 | 40.71095 | -114.43393 | 36920 ft | 483 kts | 88° |
| 2026-05-04 00:45 | 40.71183 | -114.39085 | 36272 ft | 486 kts | 89° |
| 2026-05-04 00:45 | 40.71270 | -114.34720 | 35728 ft | 484 kts | 91° |
| 2026-05-04 00:46 | 40.71352 | -114.30338 | 35145 ft | 482 kts | 90° |
| 2026-05-04 00:46 | 40.71447 | -114.25940 | 34557 ft | 480 kts | 89° |
| 2026-05-04 00:46 | 40.71545 | -114.21488 | 33846 ft | 477 kts | 89° |
| 2026-05-04 00:46 | 40.71637 | -114.17003 | 33126 ft | 474 kts | 90° |
| 2026-05-04 00:47 | 40.71733 | -114.12608 | 32463 ft | 471 kts | 89° |
| 2026-05-04 00:47 | 40.71836 | -114.08203 | 31781 ft | 468 kts | 90° |
| 2026-05-04 00:47 | 40.71930 | -114.03865 | 31125 ft | 468 kts | 90° |
| 2026-05-04 00:47 | 40.72027 | -113.99451 | 30457 ft | 471 kts | 88° |
| 2026-05-04 00:48 | 40.72138 | -113.94995 | 29792 ft | 474 kts | 89° |
| 2026-05-04 00:48 | 40.72243 | -113.90562 | 29194 ft | 477 kts | 89° |
| 2026-05-04 00:48 | 40.72351 | -113.86014 | 28636 ft | 480 kts | 89° |
| 2026-05-04 00:48 | 40.72461 | -113.81516 | 28152 ft | 484 kts | 89° |
| 2026-05-04 00:49 | 40.72582 | -113.76954 | 27618 ft | 487 kts | 88° |
| 2026-05-04 00:49 | 40.72671 | -113.72432 | 26989 ft | 491 kts | 90° |
| 2026-05-04 00:49 | 40.72649 | -113.67947 | 26280 ft | 492 kts | 91° |
| 2026-05-04 00:49 | 40.72577 | -113.63341 | 25606 ft | 493 kts | 92° |
| 2026-05-04 00:50 | 40.72510 | -113.58778 | 24942 ft | 496 kts | 91° |
| 2026-05-04 00:50 | 40.72459 | -113.54239 | 24154 ft | 496 kts | 91° |
| 2026-05-04 00:50 | 40.72436 | -113.49781 | 23373 ft | 491 kts | 90° |
| 2026-05-04 00:50 | 40.72427 | -113.45260 | 22726 ft | 483 kts | 91° |
| 2026-05-04 00:51 | 40.72407 | -113.40896 | 22165 ft | 477 kts | 92° |
| 2026-05-04 00:51 | 40.72381 | -113.36563 | 21574 ft | 474 kts | 92° |
| 2026-05-04 00:51 | 40.72356 | -113.32213 | 20957 ft | 470 kts | 92° |
| 2026-05-04 00:51 | 40.72334 | -113.27889 | 20314 ft | 469 kts | 91° |
| 2026-05-04 00:52 | 40.72323 | -113.23650 | 19692 ft | 466 kts | 91° |
| 2026-05-04 00:52 | 40.72304 | -113.19411 | 19036 ft | 467 kts | 91° |
| 2026-05-04 00:52 | 40.72292 | -113.15125 | 18339 ft | 463 kts | 91° |
| 2026-05-04 00:52 | 40.72288 | -113.10985 | 17844 ft | 458 kts | 92° |
| 2026-05-04 00:53 | 40.72281 | -113.07023 | 17327 ft | 455 kts | 92° |
| 2026-05-04 00:53 | 40.72274 | -113.03179 | 17198 ft | 445 kts | 92° |
| 2026-05-04 00:53 | 40.72268 | -112.99448 | 17125 ft | 429 kts | 92° |
| 2026-05-04 00:53 | 40.72260 | -112.95809 | 16953 ft | 407 kts | 92° |
| 2026-05-04 00:54 | 40.72258 | -112.92291 | 16940 ft | 379 kts | 91° |
| 2026-05-04 00:54 | 40.72261 | -112.88937 | 16972 ft | 360 kts | 90° |
| 2026-05-04 00:54 | 40.72261 | -112.85748 | 17070 ft | 343 kts | 93° |
| 2026-05-04 00:54 | 40.72234 | -112.82617 | 16839 ft | 339 kts | 93° |
| 2026-05-04 00:55 | 40.72192 | -112.79547 | 16428 ft | 334 kts | 91° |
| 2026-05-04 00:55 | 40.72153 | -112.76519 | 16051 ft | 327 kts | 94° |
| 2026-05-04 00:55 | 40.72123 | -112.73537 | 15713 ft | 323 kts | 90° |
| 2026-05-04 00:55 | 40.72105 | -112.70611 | 15381 ft | 321 kts | 93° |
| 2026-05-04 00:56 | 40.72080 | -112.67656 | 15049 ft | 319 kts | 91° |
| 2026-05-04 00:56 | 40.72054 | -112.64740 | 14904 ft | 319 kts | 92° |
| 2026-05-04 00:56 | 40.72025 | -112.61802 | 14781 ft | 321 kts | 92° |
| 2026-05-04 00:56 | 40.71999 | -112.58849 | 14549 ft | 321 kts | 90° |
| 2026-05-04 00:57 | 40.71981 | -112.55924 | 14349 ft | 319 kts | 91° |
| 2026-05-04 00:57 | 40.72072 | -112.53038 | 14167 ft | 317 kts | 84° |
| 2026-05-04 00:57 | 40.72405 | -112.50157 | 13967 ft | 316 kts | 77° |
| 2026-05-04 00:57 | 40.72890 | -112.47310 | 13773 ft | 316 kts | 78° |
| 2026-05-04 00:58 | 40.73379 | -112.44504 | 13573 ft | 315 kts | 77° |
| 2026-05-04 00:58 | 40.73853 | -112.41685 | 13375 ft | 315 kts | 79° |
| 2026-05-04 00:58 | 40.74312 | -112.38882 | 13168 ft | 314 kts | 76° |
| 2026-05-04 00:58 | 40.74778 | -112.36053 | 12968 ft | 313 kts | 79° |
| 2026-05-04 00:59 | 40.75237 | -112.33246 | 12757 ft | 311 kts | 77° |
| 2026-05-04 00:59 | 40.75631 | -112.30462 | 12583 ft | 309 kts | 83° |
| 2026-05-04 00:59 | 40.75845 | -112.27673 | 12447 ft | 308 kts | 87° |
| 2026-05-04 00:59 | 40.75917 | -112.24842 | 12308 ft | 308 kts | 91° |
| 2026-05-04 01:00 | 40.75933 | -112.22005 | 12168 ft | 307 kts | 89° |
| 2026-05-04 01:00 | 40.75941 | -112.19233 | 12062 ft | 300 kts | 92° |
| 2026-05-04 01:00 | 40.75645 | -112.16557 | 12115 ft | 285 kts | 110° |
| 2026-05-04 01:00 | 40.74763 | -112.14339 | 11930 ft | 277 kts | 129° |
| 2026-05-04 01:01 | 40.73451 | -112.12488 | 11040 ft | 285 kts | 139° |
| 2026-05-04 01:01 | 40.71946 | -112.10844 | 10137 ft | 291 kts | 140° |
| 2026-05-04 01:01 | 40.70358 | -112.09149 | 9258 ft | 295 kts | 141° |
| 2026-05-04 01:01 | 40.68819 | -112.07471 | 8423 ft | 297 kts | 140° |
| 2026-05-04 01:02 | 40.67241 | -112.05701 | 7592 ft | 296 kts | 137° |
| 2026-05-04 01:02 | 40.65714 | -112.03954 | 6789 ft | 296 kts | 139° |
| 2026-05-04 01:02 | 40.64170 | -112.02175 | 6333 ft | 293 kts | 140° |
| 2026-05-04 01:02 | 40.62616 | -112.00462 | 6207 ft | 293 kts | 142° |
| 2026-05-04 01:03 | 40.60936 | -111.98965 | 6203 ft | 294 kts | 150° |
| 2026-05-04 01:03 | 40.59164 | -111.97773 | 6161 ft | 293 kts | 157° |
| 2026-05-04 01:03 | 40.57292 | -111.96879 | 6389 ft | 293 kts | 163° |
| 2026-05-04 01:03 | 40.55312 | -111.96223 | 6667 ft | 295 kts | 169° |
| 2026-05-04 01:04 | 40.53292 | -111.95796 | 6943 ft | 296 kts | 173° |
| 2026-05-04 01:04 | 40.51239 | -111.95568 | 7210 ft | 296 kts | 179° |
| 2026-05-04 01:04 | 40.49169 | -111.95486 | 7464 ft | 297 kts | 178° |
| 2026-05-04 01:04 | 40.47097 | -111.95386 | 7727 ft | 297 kts | 176° |
| 2026-05-04 01:05 | 40.45029 | -111.95250 | 7989 ft | 298 kts | 178° |
| 2026-05-04 01:05 | 40.42926 | -111.95094 | 8317 ft | 300 kts | 178° |
| 2026-05-04 01:05 | 40.40860 | -111.94941 | 8962 ft | 298 kts | 175° |
| 2026-05-04 01:05 | 40.38783 | -111.94788 | 9564 ft | 298 kts | 175° |
| 2026-05-04 01:06 | 40.36720 | -111.94647 | 10120 ft | 299 kts | 178° |
| 2026-05-04 01:06 | 40.34595 | -111.94506 | 10292 ft | 305 kts | 179° |
| 2026-05-04 01:06 | 40.32449 | -111.94370 | 10598 ft | 307 kts | 177° |
| 2026-05-04 01:06 | 40.30359 | -111.94240 | 10840 ft | 292 kts | 176° |
| 2026-05-04 01:07 | 40.28409 | -111.94109 | 10911 ft | 268 kts | 179° |
| 2026-05-04 01:07 | 40.26601 | -111.93858 | 10905 ft | 252 kts | 159° |
| 2026-05-04 01:07 | 40.25277 | -111.92611 | 11042 ft | 228 kts | 122° |
| 2026-05-04 01:07 | 40.24836 | -111.90759 | 11115 ft | 207 kts | 81° |
| 2026-05-04 01:08 | 40.25393 | -111.89175 | 11175 ft | 190 kts | 34° |
| 2026-05-04 01:08 | 40.26558 | -111.88551 | 11073 ft | 182 kts | 3° |
| 2026-05-04 01:08 | 40.27870 | -111.88460 | 10220 ft | 201 kts | 7° |
| 2026-05-04 01:08 | 40.29241 | -111.88152 | 9397 ft | 206 kts | 14° |
| 2026-05-04 01:09 | 40.30608 | -111.87789 | 8857 ft | 199 kts | 8° |
| 2026-05-04 01:09 | 40.31947 | -111.87714 | 8345 ft | 191 kts | 353° |
| 2026-05-04 01:09 | 40.33234 | -111.88010 | 7786 ft | 187 kts | 342° |
| 2026-05-04 01:09 | 40.34458 | -111.88562 | 7250 ft | 182 kts | 337° |
| 2026-05-04 01:10 | 40.35650 | -111.89133 | 6658 ft | 181 kts | 341° |
| 2026-05-04 01:10 | 40.36803 | -111.89698 | 6113 ft | 181 kts | 334° |
| 2026-05-04 01:10 | 40.37896 | -111.90339 | 6066 ft | 175 kts | 339° |
| 2026-05-04 01:10 | 40.39016 | -111.90874 | 6123 ft | 181 kts | 338° |
| 2026-05-04 01:11 | 40.40129 | -111.91482 | 6102 ft | 180 kts | 337° |
| 2026-05-04 01:11 | 40.41247 | -111.92076 | 6106 ft | 180 kts | 335° |
| 2026-05-04 01:11 | 40.42362 | -111.92693 | 6105 ft | 179 kts | 342° |
| 2026-05-04 01:11 | 40.43510 | -111.93079 | 6118 ft | 178 kts | 348° |
| 2026-05-04 01:12 | 40.44709 | -111.93399 | 6112 ft | 178 kts | 351° |
| 2026-05-04 01:12 | 40.45893 | -111.93606 | 6102 ft | 177 kts | 353° |
| 2026-05-04 01:12 | 40.47065 | -111.93802 | 6106 ft | 177 kts | 352° |
| 2026-05-04 01:12 | 40.48291 | -111.93947 | 6101 ft | 177 kts | 355° |
| 2026-05-04 01:13 | 40.49507 | -111.94092 | 6106 ft | 177 kts | 354° |
| 2026-05-04 01:13 | 40.50717 | -111.94211 | 6101 ft | 177 kts | 352° |
| 2026-05-04 01:13 | 40.51962 | -111.94389 | 6101 ft | 177 kts | 355° |
| 2026-05-04 01:13 | 40.53171 | -111.94490 | 6099 ft | 177 kts | 353° |
| 2026-05-04 01:14 | 40.54380 | -111.94654 | 6095 ft | 177 kts | 356° |
| 2026-05-04 01:14 | 40.55582 | -111.94757 | 6094 ft | 177 kts | 352° |
| 2026-05-04 01:14 | 40.56766 | -111.94933 | 6091 ft | 177 kts | 355° |
| 2026-05-04 01:14 | 40.57982 | -111.95040 | 6088 ft | 177 kts | 353° |
| 2026-05-04 01:15 | 40.59167 | -111.95210 | 6083 ft | 177 kts | 355° |
| 2026-05-04 01:15 | 40.60360 | -111.95316 | 6084 ft | 177 kts | 353° |
| 2026-05-04 01:15 | 40.61560 | -111.95486 | 6079 ft | 177 kts | 355° |
| 2026-05-04 01:15 | 40.62765 | -111.95589 | 6075 ft | 177 kts | 353° |
| 2026-05-04 01:16 | 40.63992 | -111.95760 | 6075 ft | 177 kts | 355° |
| 2026-05-04 01:16 | 40.65188 | -111.95861 | 6072 ft | 177 kts | 353° |
| 2026-05-04 01:16 | 40.66385 | -111.96036 | 6083 ft | 173 kts | 354° |
| 2026-05-04 01:16 | 40.67592 | -111.96147 | 6103 ft | 178 kts | 354° |
| 2026-05-04 01:17 | 40.68837 | -111.96304 | 5808 ft | 178 kts | 354° |
| 2026-05-04 01:17 | 40.70067 | -111.96453 | 5612 ft | 173 kts | 354° |
| 2026-05-04 01:17 | 40.71291 | -111.96600 | 5412 ft | 174 kts | 354° |
| 2026-05-04 01:17 | 40.72609 | -111.96757 | 5145 ft | 173 kts | 354° |
| 2026-05-04 01:18 | 40.73914 | -111.96908 | 4924 ft | 173 kts | 354° |
| 2026-05-04 01:18 | 40.75218 | -111.97052 | 4726 ft | 171 kts | 354° |
| 2026-05-04 01:18 | 40.76459 | -111.97179 | 4480 ft | 175 kts | 352° |
| 2026-05-04 01:18 | 40.77640 | -111.97335 | 4259 ft | 168 kts | 352° |
| 2026-05-04 01:19 | 40.78603 | -111.97448 | 4236 ft | 98 kts | 356° |
| 2026-05-04 01:19 | 40.79040 | -111.97494 | 4235 ft | 34 kts | 347° |
| 2026-05-04 01:19 | 40.79131 | -111.97539 | 4235 ft | 8 kts | 333° |
| 2026-05-04 01:19 | 40.79229 | -111.97631 | 4235 ft | 22 kts | 322° |
| 2026-05-04 01:20 | 40.79365 | -111.97748 | 4234 ft | 23 kts | 340° |
| 2026-05-04 01:20 | 40.79533 | -111.97780 | 4234 ft | 23 kts | 357° |
| 2026-05-04 01:20 | 40.79706 | -111.97794 | 4234 ft | 24 kts | 356° |
| 2026-05-04 01:20 | 40.79882 | -111.97813 | 4235 ft | 24 kts | 353° |
| 2026-05-04 01:21 | 40.80020 | -111.97837 | 4237 ft | 12 kts | 335° |
| 2026-05-04 01:21 | 40.80049 | -111.97943 | 4237 ft | 13 kts | 265° |
| 2026-05-04 01:21 | 40.80103 | -111.98029 | 4237 ft | 13 kts | 349° |
| 2026-05-04 01:21 | 40.80183 | -111.98085 | 4237 ft | 13 kts | 284° |
| 2026-05-04 01:22 | 40.80182 | -111.98196 | 4236 ft | 9 kts | 271° |
| 2026-05-04 01:22 | 40.80233 | -111.98247 | 4236 ft | 10 kts | 350° |
| 2026-05-04 01:22 | 40.80249 | -111.98251 | 4236 ft | 0 kts | 351° |
| 2026-05-04 01:22 | 40.80252 | -111.98251 | 4236 ft | 0 kts | 353° |
| 2026-05-04 01:23 | 40.80257 | -111.98251 | 4236 ft | 0 kts | 355° |